KPSF/PSF METAR and TAF weather

Enter ICAO airport designator
Station Type Date Time Source
KPSF METAR 2021/09/27 07:54 UTC NOAA

KPSF 270754Z AUTO 00000KT 10SM CLR 08/07 A2992 RMK AO2 SLP121 T00780072


Station Type Date Time Source
KPSF Decoded METAR 2021/09/27 07:54 UTC NOAA

PITTSFIELD MUNICIPAL AIRPORT , MA, United States (KPSF) 42-26N 073-17W 355M
Sep 27, 2021 - 03:54 AM EDT / 2021.09.27 0754 UTC
Wind: Calm:0
Visibility: 10 mile(s):0
Sky conditions: clear
Temperature: 46.0 F (7.8 C)
Dew Point: 45.0 F (7.2 C)
Relative Humidity: 95%
Pressure (altimeter): 29.92 in. Hg (1013 hPa)
ob: KPSF 270754Z AUTO 00000KT 10SM CLR 08/07 A2992 RMK AO2 SLP121 T00780072
cycle: 8

Station Type Date Time Source
KPSF TAF 2021/09/27 06:36 UTC NOAA

TAF KPSF 270533Z 2706/2806 VRB03KT P6SM SCT080
TEMPO 2706/2710 3SM BR
FM271000 VRB03KT P6SM BKN090
FM271300 24006KT P6SM BKN040 BKN090
FM271800 22010G16KT P6SM BKN040 BKN090
FM280000 21008KT P6SM BKN040 BKN090

Example: see airport list